KLKV

Details ICAO KLKV
Name Lake Co
Region United States
Timezone America/Los_Angeles (UTC-8.0)
Plans Departing 1
Arriving 2
Stats Elevation 4,733 ft / 1,443 m (AMSL)
Location 42.161097° -120.399080°
Runways 1
Magnetic Variation 14.100° E
Sunrise 2017-12-16 15:25:27 UTC / 2017-12-16 07:25:27 Local
Sunset 2017-12-17 00:32:05 UTC / 2017-12-16 16:32:05 Local
Advertisement - Login to hide

Runways

ID Width Length Bearing (true) Bearing (mag) Surface Threshold Offset Overrun Length
16 100 ft / 30 m 5,312 ft / 1,619 m 180.26° 166.16° Asphalt 0 ft / 0 m 0 ft / 0 m
34 100 ft / 30 m 5,312 ft / 1,619 m 0.26° 346.16° Asphalt 0 ft / 0 m 0 ft / 0 m

Map

Weather


0- 5 10 15 20 25 30 35+ Temperature / ° C

Clouds and Precipitation
Forecast for 2017-12-16 18:00 UTC. Updated 4 minutes ago

Ground ~20,000 ft ~40,000 ft Winds

METAR

KLKV 161719Z AUTO 01009KT 10SM BKN021 BKN026 M03/M05 A3018 RMK AO2 FZRANO PNO $

TAF

Not found

Frequencies

Recorded 135.52 MHz AWOS 3
Unicom 122.80 MHz CTAF/UNICOM
Warning: Do not use this data for real-world aviation or navigation. No guarantee of current accuracy is given.